Time;durP1;ratioP1;P1;durP2;ratioP2;P2;SDS_P1;SDS_P2;PMS_P1;PMS_P2;Temp;Humidity;BMP_temperature;BMP_pressure;BME280_temperature;BME280_humidity;BME280_pressure;Samples;Min_cycle;Max_cycle;Signal;HPM_P1;HPM_P2
2024/01/28 00:01:08;;;;;;;20.58;5.70;;;;;;;;;;4971182;28;20065;-89
2024/01/28 00:03:52;;;;;;;19.30;5.30;;;;;;;;;;4972269;28;20048;-89
2024/01/28 00:06:39;;;;;;;16.27;5.10;;;;;;;;;;4981051;28;20082;-90
2024/01/28 00:09:27;;;;;;;14.98;5.95;;;;;;;;;;4973890;28;20069;-88
2024/01/28 00:12:14;;;;;;;22.13;7.03;;;;;;;;;;4969312;28;20050;-89
2024/01/28 00:14:59;;;;;;;30.08;5.88;;;;;;;;;;4968619;28;20453;-88
2024/01/28 00:17:43;;;;;;;15.18;6.13;;;;;;;;;;4968200;28;20037;-90
2024/01/28 00:20:27;;;;;;;17.73;5.60;;;;;;;;;;4980408;28;20056;-89
2024/01/28 00:23:11;;;;;;;15.88;6.65;;;;;;;;;;4986116;28;20106;-89
2024/01/28 00:25:55;;;;;;;17.40;5.60;;;;;;;;;;4987067;28;20045;-90
2024/01/28 00:28:39;;;;;;;20.48;5.82;;;;;;;;;;4984968;28;20044;-91
2024/01/28 00:31:29;;;;;;;24.77;6.78;;;;;;;;;;4985905;28;20045;-91
2024/01/28 00:34:13;;;;;;;19.75;6.20;;;;;;;;;;4987798;28;20045;-89
2024/01/28 00:36:57;;;;;;;16.15;5.97;;;;;;;;;;4986020;28;20049;-89
2024/01/28 00:39:41;;;;;;;18.52;6.13;;;;;;;;;;4982623;28;20069;-90
2024/01/28 00:42:25;;;;;;;20.95;6.47;;;;;;;;;;4969674;28;20048;-92
2024/01/28 00:45:10;;;;;;;25.80;6.35;;;;;;;;;;4960249;29;20090;-88
2024/01/28 00:47:54;;;;;;;15.63;6.10;;;;;;;;;;4946522;29;20070;-91
2024/01/28 00:50:37;;;;;;;17.38;6.18;;;;;;;;;;4981674;28;20499;-92
2024/01/28 00:53:24;;;;;;;19.85;6.00;;;;;;;;;;4986844;28;20045;-89
2024/01/28 00:56:08;;;;;;;20.70;6.38;;;;;;;;;;4985024;28;20045;-88
2024/01/28 00:58:52;;;;;;;19.67;6.28;;;;;;;;;;4985293;28;20525;-90
2024/01/28 01:01:36;;;;;;;16.30;6.10;;;;;;;;;;4986602;28;20036;-89
2024/01/28 01:04:20;;;;;;;16.77;6.10;;;;;;;;;;4987927;28;20551;-89
2024/01/28 01:07:04;;;;;;;16.17;6.15;;;;;;;;;;4987917;28;20085;-89
2024/01/28 01:09:48;;;;;;;19.85;6.95;;;;;;;;;;4987400;28;20097;-90
2024/01/28 01:12:32;;;;;;;15.38;6.28;;;;;;;;;;4984668;28;20045;-90
2024/01/28 01:15:15;;;;;;;20.05;6.90;;;;;;;;;;4985938;28;20041;-89
2024/01/28 01:17:59;;;;;;;18.13;6.28;;;;;;;;;;4979432;28;20040;-90
2024/01/28 01:20:46;;;;;;;17.20;6.60;;;;;;;;;;4985344;28;20104;-88
2024/01/28 01:23:30;;;;;;;14.90;7.30;;;;;;;;;;4985930;28;20077;-89
2024/01/28 01:26:15;;;;;;;17.83;6.45;;;;;;;;;;4985948;28;20077;-89
2024/01/28 01:28:59;;;;;;;19.15;6.57;;;;;;;;;;4986510;28;20060;-89
2024/01/28 01:31:43;;;;;;;15.65;7.07;;;;;;;;;;4985840;28;20097;-88
2024/01/28 01:34:27;;;;;;;16.35;6.03;;;;;;;;;;4984965;28;20396;-89
2024/01/28 01:37:11;;;;;;;21.33;7.25;;;;;;;;;;4984709;28;20033;-90
2024/01/28 01:39:55;;;;;;;14.60;6.53;;;;;;;;;;4969066;28;20050;-91
2024/01/28 01:42:39;;;;;;;14.40;6.95;;;;;;;;;;4965193;28;20089;-89
2024/01/28 01:45:23;;;;;;;18.40;7.03;;;;;;;;;;4965171;28;20045;-90
2024/01/28 01:48:11;;;;;;;16.08;7.55;;;;;;;;;;4946198;29;20102;-90
2024/01/28 01:50:55;;;;;;;20.08;7.72;;;;;;;;;;4951484;28;20030;-92
2024/01/28 01:53:40;;;;;;;23.05;7.38;;;;;;;;;;4967878;28;20056;-91
2024/01/28 01:56:25;;;;;;;21.10;7.78;;;;;;;;;;4969788;28;20046;-91
2024/01/28 01:59:09;;;;;;;18.45;8.10;;;;;;;;;;4966297;28;20054;-89
2024/01/28 02:01:54;;;;;;;21.10;7.55;;;;;;;;;;4977040;28;20065;-88
2024/01/28 02:04:38;;;;;;;17.52;7.75;;;;;;;;;;4975640;28;20078;-88
2024/01/28 02:07:22;;;;;;;19.73;8.30;;;;;;;;;;4968027;28;20058;-90
2024/01/28 02:10:07;;;;;;;21.83;7.93;;;;;;;;;;4983140;28;20051;-90
2024/01/28 02:12:51;;;;;;;16.77;7.93;;;;;;;;;;4967921;28;20085;-89
2024/01/28 02:15:37;;;;;;;19.02;7.50;;;;;;;;;;4968317;28;20061;-89
2024/01/28 02:18:21;;;;;;;23.80;9.20;;;;;;;;;;4980451;28;20566;-90
2024/01/28 02:21:05;;;;;;;23.80;8.43;;;;;;;;;;4989948;28;20097;-90
2024/01/28 02:24:19;;;;;;;15.18;8.02;;;;;;;;;;4990295;28;20115;-91
2024/01/28 02:27:04;;;;;;;26.10;8.32;;;;;;;;;;4989637;28;20573;-91
2024/01/28 02:29:48;;;;;;;19.95;8.25;;;;;;;;;;4988652;28;20045;-90
2024/01/28 02:32:32;;;;;;;17.35;8.73;;;;;;;;;;4990227;28;20099;-90
2024/01/28 02:35:17;;;;;;;28.50;7.93;;;;;;;;;;4989439;28;20048;-89
2024/01/28 02:38:01;;;;;;;15.45;8.23;;;;;;;;;;4988801;28;20078;-89
2024/01/28 02:40:45;;;;;;;19.15;7.97;;;;;;;;;;4988481;28;20437;-89
2024/01/28 02:43:29;;;;;;;19.48;9.02;;;;;;;;;;4988580;28;20081;-89
2024/01/28 02:46:14;;;;;;;20.88;9.07;;;;;;;;;;4987485;28;20041;-89
2024/01/28 02:48:59;;;;;;;24.08;9.02;;;;;;;;;;4988505;28;20125;-89
2024/01/28 02:51:45;;;;;;;21.80;9.00;;;;;;;;;;4988385;28;20049;-89
2024/01/28 02:54:28;;;;;;;20.45;8.75;;;;;;;;;;4973475;28;20094;-91
2024/01/28 02:57:12;;;;;;;18.35;8.13;;;;;;;;;;4968353;28;20049;-91
2024/01/28 02:59:57;;;;;;;14.60;8.30;;;;;;;;;;4969490;28;20648;-88
2024/01/28 03:02:41;;;;;;;29.13;8.52;;;;;;;;;;4967577;28;20043;-91
2024/01/28 03:05:25;;;;;;;21.40;8.35;;;;;;;;;;4967806;28;20054;-89
2024/01/28 03:08:09;;;;;;;19.25;8.05;;;;;;;;;;4968830;28;20130;-90
2024/01/28 03:10:53;;;;;;;17.83;8.40;;;;;;;;;;4969735;28;20101;-88
2024/01/28 03:13:37;;;;;;;14.20;7.55;;;;;;;;;;4969467;28;20094;-88
2024/01/28 03:16:22;;;;;;;20.95;7.93;;;;;;;;;;4968373;28;20065;-89
2024/01/28 03:19:06;;;;;;;19.70;8.45;;;;;;;;;;4967187;28;20041;-88
2024/01/28 03:21:50;;;;;;;16.00;7.50;;;;;;;;;;4968672;28;20050;-89
2024/01/28 03:24:34;;;;;;;20.10;8.35;;;;;;;;;;4968779;28;20134;-89
2024/01/28 03:27:18;;;;;;;19.25;8.95;;;;;;;;;;4971252;28;20097;-90
2024/01/28 03:30:04;;;;;;;20.08;8.45;;;;;;;;;;4969344;28;20126;-90
2024/01/28 03:32:48;;;;;;;20.88;8.38;;;;;;;;;;4966709;28;20037;-90
2024/01/28 03:35:33;;;;;;;20.60;8.98;;;;;;;;;;4968671;28;20045;-89
2024/01/28 03:38:17;;;;;;;20.08;8.35;;;;;;;;;;4967213;28;20038;-88
2024/01/28 03:41:01;;;;;;;20.13;8.23;;;;;;;;;;4967511;28;20500;-91
2024/01/28 03:43:46;;;;;;;21.23;8.65;;;;;;;;;;4967416;28;20102;-90
2024/01/28 03:46:30;;;;;;;16.50;8.23;;;;;;;;;;4967440;28;20037;-89
2024/01/28 03:49:14;;;;;;;13.40;7.93;;;;;;;;;;4966790;28;20105;-90
2024/01/28 03:51:58;;;;;;;19.35;7.47;;;;;;;;;;4967238;28;20436;-90
2024/01/28 03:54:42;;;;;;;17.10;7.43;;;;;;;;;;4966604;28;20437;-88
2024/01/28 03:57:26;;;;;;;12.80;6.55;;;;;;;;;;4967345;28;20046;-90
2024/01/28 04:00:11;;;;;;;17.00;6.75;;;;;;;;;;4966670;28;20050;-91
2024/01/28 04:03:00;;;;;;;14.63;6.50;;;;;;;;;;4967283;28;20515;-90
2024/01/28 04:05:45;;;;;;;19.65;6.32;;;;;;;;;;4967398;28;20046;-88
2024/01/28 04:08:29;;;;;;;19.92;6.20;;;;;;;;;;4967356;28;20037;-89
2024/01/28 04:11:13;;;;;;;10.88;5.90;;;;;;;;;;4966792;28;20088;-90
2024/01/28 04:13:56;;;;;;;13.32;5.65;;;;;;;;;;4965911;28;20042;-90
2024/01/28 04:16:40;;;;;;;11.48;5.28;;;;;;;;;;4972107;28;20033;-88
2024/01/28 04:19:24;;;;;;;13.07;6.32;;;;;;;;;;4970180;28;20037;-89
2024/01/28 04:22:09;;;;;;;13.35;5.88;;;;;;;;;;4984456;28;20045;-90
2024/01/28 04:24:53;;;;;;;14.38;5.78;;;;;;;;;;4978180;28;20042;-91
2024/01/28 04:27:37;;;;;;;14.15;6.07;;;;;;;;;;4977354;28;20038;-91
2024/01/28 04:30:21;;;;;;;10.63;5.60;;;;;;;;;;4967194;28;20069;-89
2024/01/28 04:33:06;;;;;;;11.50;6.15;;;;;;;;;;4971203;28;20065;-89
2024/01/28 04:35:50;;;;;;;9.20;6.80;;;;;;;;;;4975436;28;20053;-88
2024/01/28 04:38:34;;;;;;;14.55;6.45;;;;;;;;;;4958745;29;20042;-91
2024/01/28 04:41:18;;;;;;;12.15;7.18;;;;;;;;;;4970782;28;20049;-91
2024/01/28 04:44:02;;;;;;;9.63;5.78;;;;;;;;;;4978602;28;20193;-88
2024/01/28 04:46:46;;;;;;;18.40;6.57;;;;;;;;;;4959048;29;20122;-88
2024/01/28 04:49:32;;;;;;;18.15;7.22;;;;;;;;;;4980063;28;20068;-91
2024/01/28 04:52:16;;;;;;;17.23;9.43;;;;;;;;;;4985190;28;20045;-89
2024/01/28 04:55:00;;;;;;;18.35;8.20;;;;;;;;;;4967688;28;20067;-90
2024/01/28 04:57:44;;;;;;;14.18;8.30;;;;;;;;;;4964799;28;20122;-90
2024/01/28 05:00:28;;;;;;;17.73;8.18;;;;;;;;;;4958926;29;20057;-91
2024/01/28 05:03:12;;;;;;;17.05;9.50;;;;;;;;;;4946084;29;20098;-90
2024/01/28 05:05:59;;;;;;;25.25;9.02;;;;;;;;;;4948231;29;20106;-90
2024/01/28 05:08:43;;;;;;;17.42;8.23;;;;;;;;;;4962209;28;20098;-90
2024/01/28 05:11:27;;;;;;;16.77;8.82;;;;;;;;;;4969426;28;20396;-90
2024/01/28 05:14:12;;;;;;;18.60;8.95;;;;;;;;;;4975353;28;20101;-90
2024/01/28 05:16:58;;;;;;;16.45;9.10;;;;;;;;;;4967451;28;20046;-90
2024/01/28 05:19:42;;;;;;;20.52;9.18;;;;;;;;;;4976502;28;20096;-89
2024/01/28 05:22:25;;;;;;;15.35;8.70;;;;;;;;;;4961815;28;20038;-90
2024/01/28 05:25:09;;;;;;;23.55;10.13;;;;;;;;;;4978917;28;20041;-90
2024/01/28 05:27:54;;;;;;;20.67;9.85;;;;;;;;;;4968963;28;20126;-90
2024/01/28 05:30:38;;;;;;;21.42;10.48;;;;;;;;;;4968335;28;20070;-91
2024/01/28 05:33:22;;;;;;;20.17;10.48;;;;;;;;;;4972585;28;20089;-89
2024/01/28 05:36:16;;;;;;;20.58;10.93;;;;;;;;;;4983515;28;20046;-90
2024/01/28 05:39:00;;;;;;;24.73;9.95;;;;;;;;;;4973242;28;20038;-90
2024/01/28 05:41:44;;;;;;;18.35;10.10;;;;;;;;;;4984490;28;20126;-89
2024/01/28 05:44:28;;;;;;;20.67;9.60;;;;;;;;;;4972825;28;20041;-91
2024/01/28 05:47:12;;;;;;;20.25;9.77;;;;;;;;;;4972099;28;20447;-90
2024/01/28 05:49:55;;;;;;;31.42;11.40;;;;;;;;;;4971560;28;20037;-90
2024/01/28 05:52:40;;;;;;;24.17;10.45;;;;;;;;;;4977448;28;20093;-89
2024/01/28 05:55:23;;;;;;;20.35;10.05;;;;;;;;;;4977980;28;20045;-89
2024/01/28 05:58:07;;;;;;;20.33;10.27;;;;;;;;;;4962428;28;20046;-89
2024/01/28 06:00:51;;;;;;;16.67;10.43;;;;;;;;;;4975488;28;20088;-90
2024/01/28 06:03:36;;;;;;;24.10;10.20;;;;;;;;;;4982004;28;20105;-89
2024/01/28 06:06:20;;;;;;;22.08;10.00;;;;;;;;;;4988711;28;20045;-90
2024/01/28 06:09:05;;;;;;;17.35;10.23;;;;;;;;;;4988678;28;20122;-90
2024/01/28 06:11:49;;;;;;;16.48;10.07;;;;;;;;;;4969162;28;20050;-89
2024/01/28 06:14:32;;;;;;;20.42;11.07;;;;;;;;;;4969450;28;20045;-91
2024/01/28 06:17:16;;;;;;;22.83;11.15;;;;;;;;;;4967876;28;20054;-91
2024/01/28 06:20:00;;;;;;;19.73;10.30;;;;;;;;;;4967190;28;20101;-90
2024/01/28 06:22:44;;;;;;;27.08;10.18;;;;;;;;;;4967112;28;20049;-91
2024/01/28 06:25:28;;;;;;;30.33;10.88;;;;;;;;;;4966813;28;20042;-89
2024/01/28 06:28:13;;;;;;;16.10;10.13;;;;;;;;;;4967719;28;20045;-90
2024/01/28 06:30:56;;;;;;;22.30;10.98;;;;;;;;;;4984569;28;20512;-90
2024/01/28 06:33:41;;;;;;;25.10;10.70;;;;;;;;;;4969048;28;20037;-89
2024/01/28 06:36:25;;;;;;;23.38;11.18;;;;;;;;;;4968064;28;20089;-91
2024/01/28 06:39:09;;;;;;;18.70;10.68;;;;;;;;;;4972974;28;20037;-89
2024/01/28 06:41:53;;;;;;;23.02;10.85;;;;;;;;;;4977322;28;20118;-89
2024/01/28 06:44:37;;;;;;;21.75;10.98;;;;;;;;;;4980479;28;20097;-90
2024/01/28 06:47:21;;;;;;;21.20;11.05;;;;;;;;;;4966785;28;20042;-89
2024/01/28 06:50:05;;;;;;;19.13;11.20;;;;;;;;;;4968008;28;20046;-91
2024/01/28 06:52:49;;;;;;;23.90;10.50;;;;;;;;;;4968364;28;20071;-90
2024/01/28 06:55:33;;;;;;;20.40;10.77;;;;;;;;;;4969999;28;20053;-88
2024/01/28 06:58:17;;;;;;;22.10;11.32;;;;;;;;;;4962361;28;20039;-91
2024/01/28 07:01:02;;;;;;;24.42;13.25;;;;;;;;;;4984975;28;20049;-90
2024/01/28 07:03:46;;;;;;;16.00;10.98;;;;;;;;;;4990838;28;20069;-89
2024/01/28 07:13:50;;;;;;;14.30;9.70;;;;;;;;;;5003286;28;20070;-88
2024/01/28 07:16:42;;;;;;;14.90;10.63;;;;;;;;;;4967178;28;20037;-91
2024/01/28 07:19:35;;;;;;;22.73;11.27;;;;;;;;;;4973737;28;20041;-89
2024/01/28 07:22:29;;;;;;;14.55;9.55;;;;;;;;;;4962239;29;20055;-90
2024/01/28 07:25:22;;;;;;;17.33;9.63;;;;;;;;;;4947766;29;20179;-90
2024/01/28 07:28:15;;;;;;;19.73;10.30;;;;;;;;;;4947944;29;20090;-89
2024/01/28 07:34:36;;;;;;;13.33;8.93;;;;;;;;;;4963808;29;20066;-90
2024/01/28 07:37:49;;;;;;;16.52;8.93;;;;;;;;;;4962967;28;20288;-90
2024/01/28 07:40:39;;;;;;;15.40;9.00;;;;;;;;;;4984971;28;20049;-91
2024/01/28 07:43:23;;;;;;;16.98;8.45;;;;;;;;;;4986360;28;20050;-91
2024/01/28 07:46:11;;;;;;;14.80;8.40;;;;;;;;;;4979823;28;20050;-90
2024/01/28 07:48:55;;;;;;;17.23;8.85;;;;;;;;;;4966670;28;20045;-91
2024/01/28 07:51:38;;;;;;;12.60;7.78;;;;;;;;;;4971093;28;20097;-92
2024/01/28 07:54:22;;;;;;;13.50;7.80;;;;;;;;;;4972975;28;20093;-91
2024/01/28 07:57:06;;;;;;;15.88;7.60;;;;;;;;;;4975132;28;20101;-88
2024/01/28 07:59:50;;;;;;;27.20;8.75;;;;;;;;;;4966587;28;20050;-91
2024/01/28 08:02:34;;;;;;;13.32;8.20;;;;;;;;;;4979979;28;20042;-88
2024/01/28 08:05:18;;;;;;;15.43;7.85;;;;;;;;;;4967696;28;20494;-89
2024/01/28 08:08:02;;;;;;;12.23;7.57;;;;;;;;;;4969069;28;20090;-90
2024/01/28 08:10:46;;;;;;;13.85;7.82;;;;;;;;;;4976448;28;20403;-89
2024/01/28 08:13:30;;;;;;;15.90;8.57;;;;;;;;;;4977973;28;20073;-88
2024/01/28 08:16:14;;;;;;;20.48;8.70;;;;;;;;;;4969288;28;20038;-89
2024/01/28 08:19:08;;;;;;;21.67;9.13;;;;;;;;;;4971500;28;20045;-89
2024/01/28 08:21:52;;;;;;;16.45;8.45;;;;;;;;;;4969219;28;20125;-88
2024/01/28 08:24:37;;;;;;;19.05;8.07;;;;;;;;;;4971530;28;20583;-88
2024/01/28 08:27:21;;;;;;;14.55;8.48;;;;;;;;;;4973697;28;20050;-88
2024/01/28 08:30:09;;;;;;;11.55;7.28;;;;;;;;;;4971116;28;20166;-90
2024/01/28 08:32:53;;;;;;;13.60;8.45;;;;;;;;;;4973878;28;20144;-90
2024/01/28 08:42:53;;;;;;;17.73;8.50;;;;;;;;;;4989155;28;20505;-89
2024/01/28 08:45:37;;;;;;;17.95;8.18;;;;;;;;;;4964250;28;20093;-90
2024/01/28 08:48:21;;;;;;;15.05;8.20;;;;;;;;;;4975608;28;20100;-92
2024/01/28 08:51:05;;;;;;;15.10;8.88;;;;;;;;;;4972179;28;20089;-88
2024/01/28 08:53:49;;;;;;;19.70;8.27;;;;;;;;;;4969709;28;20464;-90
2024/01/28 08:56:33;;;;;;;15.70;7.60;;;;;;;;;;4976132;28;20042;-88
2024/01/28 08:59:19;;;;;;;13.85;8.45;;;;;;;;;;4995989;28;20098;-89
2024/01/28 09:02:05;;;;;;;13.23;7.13;;;;;;;;;;4971973;28;20045;-88
2024/01/28 09:04:49;;;;;;;19.08;8.43;;;;;;;;;;4974015;28;20046;-91
2024/01/28 09:07:36;;;;;;;20.23;9.77;;;;;;;;;;4970056;28;20085;-89
2024/01/28 09:10:20;;;;;;;25.52;10.98;;;;;;;;;;4965522;28;20100;-87
2024/01/28 09:13:04;;;;;;;24.48;11.60;;;;;;;;;;4967081;28;20547;-88
2024/01/28 09:15:48;;;;;;;29.63;12.65;;;;;;;;;;4975642;28;20045;-89
2024/01/28 09:18:32;;;;;;;24.00;9.35;;;;;;;;;;4969604;28;20121;-89
2024/01/28 09:21:16;;;;;;;20.73;9.05;;;;;;;;;;4985640;28;20034;-88
2024/01/28 09:24:01;;;;;;;30.77;12.70;;;;;;;;;;4970155;28;20046;-90
2024/01/28 09:26:45;;;;;;;26.92;12.48;;;;;;;;;;4963187;28;20504;-90
2024/01/28 09:29:32;;;;;;;35.17;14.05;;;;;;;;;;4968355;28;20053;-87
2024/01/28 09:32:17;;;;;;;30.85;14.25;;;;;;;;;;4978799;28;20115;-90
2024/01/28 09:35:01;;;;;;;22.65;9.77;;;;;;;;;;4968392;28;20081;-90
2024/01/28 09:37:46;;;;;;;12.07;8.65;;;;;;;;;;4966341;28;20055;-89
2024/01/28 09:40:30;;;;;;;17.75;9.23;;;;;;;;;;4961357;28;20092;-89
2024/01/28 09:43:27;;;;;;;18.42;8.88;;;;;;;;;;4972881;28;20056;-87
2024/01/28 09:46:12;;;;;;;14.93;8.80;;;;;;;;;;4964847;28;20053;-88
2024/01/28 09:48:58;;;;;;;16.48;8.65;;;;;;;;;;4964887;28;20101;-89
2024/01/28 09:51:43;;;;;;;19.00;9.52;;;;;;;;;;4967580;28;20129;-90
2024/01/28 09:54:26;;;;;;;15.73;10.52;;;;;;;;;;4970166;28;20046;-89
2024/01/28 09:57:11;;;;;;;21.45;11.02;;;;;;;;;;4963507;28;20054;-91
2024/01/28 10:10:53;;;;;;;20.38;7.68;;;;;;;;;;4983803;28;20111;-90
2024/01/28 10:13:37;;;;;;;13.15;7.28;;;;;;;;;;4970170;28;20038;-90
2024/01/28 10:16:22;;;;;;;11.10;6.72;;;;;;;;;;4978624;28;20587;-90
2024/01/28 10:19:06;;;;;;;10.85;6.63;;;;;;;;;;4978616;28;20089;-91
2024/01/28 10:21:50;;;;;;;10.43;6.55;;;;;;;;;;4981882;28;20038;-91
2024/01/28 10:24:34;;;;;;;10.15;6.43;;;;;;;;;;4960278;28;20093;-90
2024/01/28 10:27:19;;;;;;;12.77;6.90;;;;;;;;;;4978263;28;20034;-90
2024/01/28 10:30:07;;;;;;;16.42;6.93;;;;;;;;;;4984279;28;20191;-90
2024/01/28 10:32:52;;;;;;;14.00;7.32;;;;;;;;;;4974373;28;20095;-91
2024/01/28 10:35:36;;;;;;;12.85;7.00;;;;;;;;;;4976803;28;20037;-90
2024/01/28 10:38:22;;;;;;;18.63;6.93;;;;;;;;;;4985490;28;20062;-88
2024/01/28 10:41:06;;;;;;;13.02;6.35;;;;;;;;;;4969810;28;20049;-89
2024/01/28 10:43:57;;;;;;;14.20;6.70;;;;;;;;;;4972038;28;20113;-90
2024/01/28 10:46:42;;;;;;;12.05;6.85;;;;;;;;;;4976612;28;20041;-90
2024/01/28 10:49:34;;;;;;;18.98;8.02;;;;;;;;;;4976860;28;20066;-90
2024/01/28 10:52:19;;;;;;;11.57;7.05;;;;;;;;;;4967207;28;20456;-89
2024/01/28 10:55:04;;;;;;;12.98;6.97;;;;;;;;;;4977057;28;20053;-90
2024/01/28 10:57:48;;;;;;;14.00;7.35;;;;;;;;;;4970627;28;20176;-89
2024/01/28 11:00:33;;;;;;;12.23;7.30;;;;;;;;;;4966724;28;20048;-89
2024/01/28 11:03:17;;;;;;;17.00;7.57;;;;;;;;;;4977306;28;20503;-89
2024/01/28 11:06:01;;;;;;;12.48;7.05;;;;;;;;;;4979895;28;20048;-88
2024/01/28 11:08:46;;;;;;;14.63;6.88;;;;;;;;;;4967042;28;20132;-90
2024/01/28 11:11:32;;;;;;;15.15;7.22;;;;;;;;;;4970545;28;20389;-91
2024/01/28 11:14:17;;;;;;;16.65;8.70;;;;;;;;;;4968998;28;20042;-91
2024/01/28 11:17:02;;;;;;;17.80;7.25;;;;;;;;;;4975139;28;20076;-89
2024/01/28 11:19:46;;;;;;;12.85;7.10;;;;;;;;;;4983650;28;20393;-89
2024/01/28 11:22:44;;;;;;;15.57;6.97;;;;;;;;;;4983083;28;20088;-88
2024/01/28 11:25:29;;;;;;;13.10;7.15;;;;;;;;;;4983140;28;20097;-88
2024/01/28 11:28:14;;;;;;;11.65;6.85;;;;;;;;;;4983694;28;20412;-89
2024/01/28 11:30:58;;;;;;;8.13;7.13;;;;;;;;;;4983305;28;20041;-87
2024/01/28 11:33:45;;;;;;;17.10;6.93;;;;;;;;;;4982944;28;20045;-87
2024/01/28 11:36:30;;;;;;;16.70;8.27;;;;;;;;;;4982468;28;20092;-92
2024/01/28 11:39:15;;;;;;;12.02;6.93;;;;;;;;;;4982834;28;20049;-89
2024/01/28 11:42:00;;;;;;;13.48;6.45;;;;;;;;;;4982341;28;20053;-89
2024/01/28 11:44:44;;;;;;;14.68;7.28;;;;;;;;;;4982265;28;20486;-89
2024/01/28 11:47:29;;;;;;;12.02;7.55;;;;;;;;;;4982534;28;20134;-90
2024/01/28 11:50:14;;;;;;;15.38;7.50;;;;;;;;;;4982185;28;20062;-88
2024/01/28 11:52:58;;;;;;;16.00;7.70;;;;;;;;;;4982343;28;20046;-90
2024/01/28 11:55:41;;;;;;;11.15;7.68;;;;;;;;;;4998899;28;20057;-90
2024/01/28 11:58:28;;;;;;;18.75;7.60;;;;;;;;;;4988067;28;20049;-92
2024/01/28 12:01:12;;;;;;;11.00;7.90;;;;;;;;;;4983863;28;20053;-91
2024/01/28 12:03:56;;;;;;;14.48;7.88;;;;;;;;;;4997028;28;20077;-91
2024/01/28 12:06:43;;;;;;;13.43;8.10;;;;;;;;;;4982123;28;20038;-88
2024/01/28 12:09:29;;;;;;;14.20;7.63;;;;;;;;;;4981282;28;20049;-90
2024/01/28 12:12:13;;;;;;;18.45;7.85;;;;;;;;;;4981654;28;20162;-89
2024/01/28 12:14:58;;;;;;;18.27;8.38;;;;;;;;;;4974750;28;20630;-92
2024/01/28 12:17:42;;;;;;;13.63;7.22;;;;;;;;;;4973757;28;20090;-91
2024/01/28 12:29:56;;;;;;;17.50;8.70;;;;;;;;;;4983233;28;20045;-89
2024/01/28 12:32:44;;;;;;;19.40;9.60;;;;;;;;;;4968359;28;20129;-89
2024/01/28 12:39:05;;;;;;;10.68;7.35;;;;;;;;;;4987708;28;20063;-90
2024/01/28 12:41:50;;;;;;;21.13;7.90;;;;;;;;;;4976092;28;20160;-90
2024/01/28 12:47:23;;;;;;;20.58;9.32;;;;;;;;;;5475518;23;20054;-91
2024/01/28 12:50:12;;;;;;;17.77;8.25;;;;;;;;;;4977676;28;20089;-89
2024/01/28 12:56:43;;;;;;;13.95;7.43;;;;;;;;;;4927126;29;20406;-91
2024/01/28 12:59:27;;;;;;;19.67;7.35;;;;;;;;;;4911926;29;20483;-90
2024/01/28 13:02:14;;;;;;;10.35;7.18;;;;;;;;;;4910168;29;20043;-89
2024/01/28 13:05:08;;;;;;;13.43;7.22;;;;;;;;;;4907319;29;20043;-89
2024/01/28 13:07:57;;;;;;;;;;;;;;;;;;4909737;29;20083;-90
2024/01/28 13:10:44;;;;;;;14.77;7.10;;;;;;;;;;4909104;29;19945;-91
2024/01/28 13:13:31;;;;;;;17.42;7.13;;;;;;;;;;4913744;29;20081;-89
2024/01/28 13:23:14;;;;;;;10.95;6.75;;;;;;;;;;4926233;28;20499;-88
2024/01/28 13:26:08;;;;;;;11.85;7.32;;;;;;;;;;4984621;28;20049;-91
2024/01/28 13:31:56;;;;;;;13.98;6.97;;;;;;;;;;4962166;29;20070;-89
2024/01/28 13:34:55;;;;;;;19.35;7.90;;;;;;;;;;4984636;28;20046;-92
2024/01/28 13:37:50;;;;;;;10.60;6.15;;;;;;;;;;4964120;29;20046;-91
2024/01/28 13:43:34;;;;;;;13.85;6.65;;;;;;;;;;5645859;23;20116;-89
2024/01/28 13:46:32;;;;;;;13.13;6.88;;;;;;;;;;4946191;29;20527;-89
2024/01/28 13:49:16;;;;;;;11.07;6.25;;;;;;;;;;4945080;29;20050;-89
2024/01/28 13:52:00;;;;;;;13.23;6.45;;;;;;;;;;4945514;29;20071;-90
2024/01/28 13:54:44;;;;;;;11.95;6.32;;;;;;;;;;4943896;29;20117;-89
2024/01/28 13:57:28;;;;;;;16.60;8.45;;;;;;;;;;4959688;28;20065;-90
2024/01/28 14:00:12;;;;;;;14.98;7.05;;;;;;;;;;4966352;28;20041;-89
2024/01/28 14:02:57;;;;;;;16.95;6.95;;;;;;;;;;4959577;28;20054;-90
2024/01/28 14:05:41;;;;;;;10.35;7.13;;;;;;;;;;4967140;28;20393;-91
2024/01/28 14:15:42;;;;;;;12.32;6.38;;;;;;;;;;4960340;28;20038;-87
2024/01/28 14:18:26;;;;;;;12.40;7.13;;;;;;;;;;4963740;28;20460;-87
2024/01/28 14:21:11;;;;;;;11.88;6.78;;;;;;;;;;4964939;28;20046;-92
2024/01/28 14:23:55;;;;;;;12.95;8.35;;;;;;;;;;4966626;28;20045;-88
2024/01/28 14:26:39;;;;;;;11.60;7.38;;;;;;;;;;4964703;28;20127;-89
2024/01/28 14:29:23;;;;;;;11.18;6.93;;;;;;;;;;4965597;28;20074;-90
2024/01/28 14:32:07;;;;;;;11.02;7.10;;;;;;;;;;4965113;28;20053;-92
2024/01/28 14:34:51;;;;;;;10.70;6.35;;;;;;;;;;4964474;28;20085;-89
2024/01/28 14:37:35;;;;;;;10.80;6.82;;;;;;;;;;4964493;28;20392;-89
2024/01/28 14:50:26;;;;;;;10.52;7.15;;;;;;;;;;6113040;23;20044;-88
2024/01/28 14:53:11;;;;;;;16.10;7.00;;;;;;;;;;4944160;29;20144;-90
2024/01/28 14:55:55;;;;;;;12.32;6.57;;;;;;;;;;4945684;29;20091;-89
2024/01/28 14:58:38;;;;;;;10.80;6.80;;;;;;;;;;4946424;29;20042;-87
2024/01/28 15:01:23;;;;;;;12.77;7.82;;;;;;;;;;4946037;29;20073;-90
2024/01/28 15:04:06;;;;;;;11.80;7.25;;;;;;;;;;4946148;29;20102;-90
2024/01/28 15:06:50;;;;;;;11.75;6.93;;;;;;;;;;4946466;29;20556;-88
2024/01/28 15:09:34;;;;;;;10.32;7.18;;;;;;;;;;4945142;28;20069;-88
2024/01/28 15:12:19;;;;;;;15.30;7.65;;;;;;;;;;4945272;29;20101;-87
2024/01/28 15:15:02;;;;;;;16.88;8.93;;;;;;;;;;4945509;29;20509;-89
2024/01/28 15:17:49;;;;;;;16.48;8.90;;;;;;;;;;4945465;29;20047;-91
2024/01/28 15:20:33;;;;;;;21.13;11.38;;;;;;;;;;4945331;29;20038;-89
2024/01/28 15:23:17;;;;;;;15.20;7.82;;;;;;;;;;4945025;29;20075;-89
2024/01/28 15:26:01;;;;;;;12.32;8.07;;;;;;;;;;4944350;29;20091;-90
2024/01/28 15:28:45;;;;;;;13.27;7.95;;;;;;;;;;4944739;29;20106;-90
2024/01/28 15:31:29;;;;;;;10.60;8.48;;;;;;;;;;4944189;29;20542;-88
2024/01/28 15:34:13;;;;;;;15.52;10.50;;;;;;;;;;4944980;29;20051;-88
2024/01/28 15:36:57;;;;;;;14.15;9.82;;;;;;;;;;4944612;29;20058;-88
2024/01/28 15:39:41;;;;;;;15.20;9.73;;;;;;;;;;4944946;29;20045;-88
2024/01/28 15:42:25;;;;;;;15.38;10.40;;;;;;;;;;4945411;29;20050;-88
2024/01/28 15:45:09;;;;;;;21.88;9.90;;;;;;;;;;4945274;29;20561;-92
2024/01/28 15:47:53;;;;;;;19.42;9.18;;;;;;;;;;4944767;29;20098;-87
2024/01/28 15:50:37;;;;;;;18.02;9.82;;;;;;;;;;4945098;29;20171;-88
2024/01/28 15:53:21;;;;;;;16.10;8.77;;;;;;;;;;4945256;29;20054;-88
2024/01/28 15:56:05;;;;;;;17.75;9.10;;;;;;;;;;4945726;29;20058;-90
2024/01/28 15:58:50;;;;;;;20.00;10.70;;;;;;;;;;4945165;29;20046;-89
2024/01/28 16:01:34;;;;;;;18.92;12.15;;;;;;;;;;4945058;29;20058;-91
2024/01/28 16:04:18;;;;;;;19.02;10.98;;;;;;;;;;4945611;29;20046;-90
2024/01/28 16:07:02;;;;;;;43.92;23.40;;;;;;;;;;4943455;29;20042;-89
2024/01/28 16:09:49;;;;;;;38.13;19.13;;;;;;;;;;4944277;29;20046;-90
2024/01/28 16:12:33;;;;;;;23.90;15.35;;;;;;;;;;4944637;29;20039;-87
2024/01/28 16:15:17;;;;;;;39.75;24.65;;;;;;;;;;4944620;29;20118;-89
2024/01/28 16:18:01;;;;;;;81.32;53.22;;;;;;;;;;4945574;29;20453;-88
2024/01/28 16:20:45;;;;;;;87.20;51.88;;;;;;;;;;4945161;29;20432;-88
2024/01/28 16:23:29;;;;;;;29.33;20.20;;;;;;;;;;4943441;29;20046;-88
2024/01/28 16:26:13;;;;;;;31.23;20.65;;;;;;;;;;4944541;29;20508;-89
2024/01/28 16:28:57;;;;;;;16.65;10.38;;;;;;;;;;4944923;29;20043;-89
2024/01/28 16:31:41;;;;;;;21.10;14.77;;;;;;;;;;4944472;29;20039;-89
2024/01/28 16:34:25;;;;;;;24.15;10.80;;;;;;;;;;4960554;28;20105;-89
2024/01/28 16:37:09;;;;;;;21.08;9.55;;;;;;;;;;4952213;28;20069;-89
2024/01/28 16:39:53;;;;;;;15.75;8.55;;;;;;;;;;4951578;28;20074;-89
2024/01/28 16:42:37;;;;;;;21.67;12.20;;;;;;;;;;4950526;28;20094;-88
2024/01/28 16:45:22;;;;;;;18.33;9.23;;;;;;;;;;4948136;28;20449;-92
2024/01/28 16:48:06;;;;;;;15.73;9.30;;;;;;;;;;4954605;28;20030;-89
2024/01/28 16:50:50;;;;;;;16.55;10.65;;;;;;;;;;4944495;29;20398;-91
2024/01/28 16:53:34;;;;;;;17.67;10.60;;;;;;;;;;4951313;28;20034;-89
2024/01/28 16:56:18;;;;;;;23.45;13.18;;;;;;;;;;4950543;28;20053;-90
2024/01/28 17:06:15;;;;;;;19.85;10.73;;;;;;;;;;4966303;28;20571;-90
2024/01/28 17:08:57;;;;;;;18.10;9.82;;;;;;;;;;1143147;23;21021;-89
2024/01/28 17:11:41;;;;;;;17.73;11.50;;;;;;;;;;4966114;28;20135;-90
2024/01/28 17:14:26;;;;;;;17.67;10.18;;;;;;;;;;4968513;28;20033;-88
2024/01/28 17:17:10;;;;;;;17.20;10.73;;;;;;;;;;4970710;28;20092;-87
2024/01/28 17:19:54;;;;;;;19.42;12.45;;;;;;;;;;4977363;28;20804;-89
2024/01/28 17:22:38;;;;;;;25.40;13.27;;;;;;;;;;4980603;28;20396;-88
2024/01/28 17:25:22;;;;;;;61.28;36.85;;;;;;;;;;4969535;28;20129;-87
2024/01/28 17:28:05;;;;;;;41.42;25.95;;;;;;;;;;4963939;28;20038;-86
2024/01/28 17:30:51;;;;;;;35.58;25.58;;;;;;;;;;4966012;28;20173;-88
2024/01/28 17:33:35;;;;;;;25.17;16.35;;;;;;;;;;4967349;28;20058;-88
2024/01/28 17:36:23;;;;;;;22.42;15.60;;;;;;;;;;4968752;28;20585;-88
2024/01/28 17:39:07;;;;;;;23.23;13.82;;;;;;;;;;4982057;28;20045;-89